sensor_id;sensor_type;location;lat;lon;timestamp;P1;durP1;ratioP1;P2;durP2;ratioP2
63394;SDS011;49531;-34.520;150.798;2022-08-16T00:00:12;0.40;;;0.40;;
63394;SDS011;49531;-34.520;150.798;2022-08-16T00:02:42;0.20;;;0.20;;
63394;SDS011;49531;-34.520;150.798;2022-08-16T00:05:10;0.20;;;0.20;;
63394;SDS011;49531;-34.520;150.798;2022-08-16T00:07:39;0.50;;;0.30;;
63394;SDS011;49531;-34.520;150.798;2022-08-16T00:10:08;0.25;;;0.20;;
63394;SDS011;49531;-34.520;150.798;2022-08-16T00:12:38;0.45;;;0.30;;
63394;SDS011;49531;-34.520;150.798;2022-08-16T00:15:11;0.20;;;0.20;;
63394;SDS011;49531;-34.520;150.798;2022-08-16T00:17:41;0.20;;;0.20;;
63394;SDS011;49531;-34.520;150.798;2022-08-16T00:20:09;0.30;;;0.30;;
63394;SDS011;49531;-34.520;150.798;2022-08-16T00:22:37;0.25;;;0.25;;
63394;SDS011;49531;-34.520;150.798;2022-08-16T00:25:06;0.25;;;0.25;;
63394;SDS011;49531;-34.520;150.798;2022-08-16T00:27:35;0.57;;;0.40;;
63394;SDS011;49531;-34.520;150.798;2022-08-16T00:30:03;0.30;;;0.30;;
63394;SDS011;49531;-34.520;150.798;2022-08-16T00:32:33;0.35;;;0.30;;
63394;SDS011;49531;-34.520;150.798;2022-08-16T00:35:00;0.35;;;0.30;;
63394;SDS011;49531;-34.520;150.798;2022-08-16T00:37:27;0.47;;;0.22;;
63394;SDS011;49531;-34.520;150.798;2022-08-16T00:39:54;0.35;;;0.35;;
63394;SDS011;49531;-34.520;150.798;2022-08-16T00:42:21;0.40;;;0.30;;
63394;SDS011;49531;-34.520;150.798;2022-08-16T00:44:54;0.20;;;0.20;;
63394;SDS011;49531;-34.520;150.798;2022-08-16T00:47:24;0.30;;;0.30;;
63394;SDS011;49531;-34.520;150.798;2022-08-16T00:49:51;0.30;;;0.30;;
63394;SDS011;49531;-34.520;150.798;2022-08-16T00:52:19;0.32;;;0.28;;
63394;SDS011;49531;-34.520;150.798;2022-08-16T00:54:46;1.50;;;0.30;;
63394;SDS011;49531;-34.520;150.798;2022-08-16T00:57:13;0.20;;;0.20;;
63394;SDS011;49531;-34.520;150.798;2022-08-16T00:59:40;2.03;;;0.30;;
63394;SDS011;49531;-34.520;150.798;2022-08-16T01:02:08;0.20;;;0.20;;
63394;SDS011;49531;-34.520;150.798;2022-08-16T01:04:35;0.30;;;0.30;;
63394;SDS011;49531;-34.520;150.798;2022-08-16T01:07:04;0.35;;;0.25;;
63394;SDS011;49531;-34.520;150.798;2022-08-16T01:09:32;0.47;;;0.38;;
63394;SDS011;49531;-34.520;150.798;2022-08-16T01:12:04;0.30;;;0.30;;
63394;SDS011;49531;-34.520;150.798;2022-08-16T01:14:35;0.30;;;0.28;;
63394;SDS011;49531;-34.520;150.798;2022-08-16T01:17:11;0.35;;;0.35;;
63394;SDS011;49531;-34.520;150.798;2022-08-16T01:19:49;0.40;;;0.30;;
63394;SDS011;49531;-34.520;150.798;2022-08-16T01:22:29;2.30;;;0.40;;
63394;SDS011;49531;-34.520;150.798;2022-08-16T01:24:58;0.43;;;0.30;;
63394;SDS011;49531;-34.520;150.798;2022-08-16T01:27:32;0.40;;;0.40;;
63394;SDS011;49531;-34.520;150.798;2022-08-16T01:30:09;0.30;;;0.30;;
63394;SDS011;49531;-34.520;150.798;2022-08-16T01:32:42;0.30;;;0.30;;
63394;SDS011;49531;-34.520;150.798;2022-08-16T01:35:53;0.45;;;0.40;;
63394;SDS011;49531;-34.520;150.798;2022-08-16T01:38:21;0.57;;;0.38;;
63394;SDS011;49531;-34.520;150.798;2022-08-16T01:40:49;0.30;;;0.30;;
63394;SDS011;49531;-34.520;150.798;2022-08-16T01:43:19;0.60;;;0.40;;
63394;SDS011;49531;-34.520;150.798;2022-08-16T01:45:51;0.30;;;0.28;;
63394;SDS011;49531;-34.520;150.798;2022-08-16T01:48:19;0.30;;;0.30;;
63394;SDS011;49531;-34.520;150.798;2022-08-16T01:50:50;0.98;;;0.40;;
63394;SDS011;49531;-34.520;150.798;2022-08-16T01:53:17;0.30;;;0.30;;
63394;SDS011;49531;-34.520;150.798;2022-08-16T01:55:45;0.75;;;0.40;;
63394;SDS011;49531;-34.520;150.798;2022-08-16T01:58:13;0.60;;;0.40;;
63394;SDS011;49531;-34.520;150.798;2022-08-16T02:00:42;0.40;;;0.40;;
63394;SDS011;49531;-34.520;150.798;2022-08-16T02:03:10;0.38;;;0.30;;
63394;SDS011;49531;-34.520;150.798;2022-08-16T02:05:38;0.30;;;0.30;;
63394;SDS011;49531;-34.520;150.798;2022-08-16T02:08:06;1.70;;;0.40;;
63394;SDS011;49531;-34.520;150.798;2022-08-16T02:10:34;0.52;;;0.30;;
63394;SDS011;49531;-34.520;150.798;2022-08-16T02:13:04;0.40;;;0.40;;
63394;SDS011;49531;-34.520;150.798;2022-08-16T02:15:32;0.47;;;0.38;;
63394;SDS011;49531;-34.520;150.798;2022-08-16T02:18:02;0.95;;;0.40;;
63394;SDS011;49531;-34.520;150.798;2022-08-16T02:20:31;0.57;;;0.30;;
63394;SDS011;49531;-34.520;150.798;2022-08-16T02:23:00;1.02;;;0.32;;
63394;SDS011;49531;-34.520;150.798;2022-08-16T02:25:28;0.20;;;0.20;;
63394;SDS011;49531;-34.520;150.798;2022-08-16T02:27:55;0.40;;;0.40;;
63394;SDS011;49531;-34.520;150.798;2022-08-16T02:30:25;1.30;;;0.30;;
63394;SDS011;49531;-34.520;150.798;2022-08-16T02:32:55;0.98;;;0.45;;
63394;SDS011;49531;-34.520;150.798;2022-08-16T02:35:23;1.20;;;0.40;;
63394;SDS011;49531;-34.520;150.798;2022-08-16T02:37:51;2.38;;;0.40;;
63394;SDS011;49531;-34.520;150.798;2022-08-16T02:40:20;0.30;;;0.30;;
63394;SDS011;49531;-34.520;150.798;2022-08-16T02:42:49;1.48;;;0.40;;
63394;SDS011;49531;-34.520;150.798;2022-08-16T02:45:18;0.40;;;0.40;;
63394;SDS011;49531;-34.520;150.798;2022-08-16T02:47:48;0.45;;;0.38;;
63394;SDS011;49531;-34.520;150.798;2022-08-16T02:50:15;1.23;;;0.35;;
63394;SDS011;49531;-34.520;150.798;2022-08-16T02:52:43;0.40;;;0.40;;
63394;SDS011;49531;-34.520;150.798;2022-08-16T02:55:10;0.68;;;0.40;;
63394;SDS011;49531;-34.520;150.798;2022-08-16T02:57:37;2.03;;;0.35;;
63394;SDS011;49531;-34.520;150.798;2022-08-16T03:00:06;0.52;;;0.40;;
63394;SDS011;49531;-34.520;150.798;2022-08-16T03:02:36;0.60;;;0.45;;
63394;SDS011;49531;-34.520;150.798;2022-08-16T03:05:05;0.40;;;0.40;;
63394;SDS011;49531;-34.520;150.798;2022-08-16T03:07:34;0.40;;;0.40;;
63394;SDS011;49531;-34.520;150.798;2022-08-16T03:10:03;0.40;;;0.40;;
63394;SDS011;49531;-34.520;150.798;2022-08-16T03:12:31;0.30;;;0.30;;
63394;SDS011;49531;-34.520;150.798;2022-08-16T03:14:58;0.40;;;0.40;;
63394;SDS011;49531;-34.520;150.798;2022-08-16T03:17:25;0.63;;;0.40;;
63394;SDS011;49531;-34.520;150.798;2022-08-16T03:19:52;0.70;;;0.40;;
63394;SDS011;49531;-34.520;150.798;2022-08-16T03:22:20;0.73;;;0.50;;
63394;SDS011;49531;-34.520;150.798;2022-08-16T03:24:47;1.17;;;0.35;;
63394;SDS011;49531;-34.520;150.798;2022-08-16T03:27:15;0.47;;;0.30;;
63394;SDS011;49531;-34.520;150.798;2022-08-16T03:29:42;0.82;;;0.40;;
63394;SDS011;49531;-34.520;150.798;2022-08-16T03:32:09;2.05;;;0.40;;
63394;SDS011;49531;-34.520;150.798;2022-08-16T03:34:36;0.38;;;0.30;;
63394;SDS011;49531;-34.520;150.798;2022-08-16T03:37:03;0.30;;;0.30;;
63394;SDS011;49531;-34.520;150.798;2022-08-16T03:39:30;0.75;;;0.38;;
63394;SDS011;49531;-34.520;150.798;2022-08-16T03:41:57;3.63;;;0.40;;
63394;SDS011;49531;-34.520;150.798;2022-08-16T03:44:24;0.30;;;0.30;;
63394;SDS011;49531;-34.520;150.798;2022-08-16T03:46:51;1.33;;;0.40;;
63394;SDS011;49531;-34.520;150.798;2022-08-16T03:49:18;0.55;;;0.40;;
63394;SDS011;49531;-34.520;150.798;2022-08-16T03:51:45;1.48;;;0.40;;
63394;SDS011;49531;-34.520;150.798;2022-08-16T03:54:12;0.52;;;0.40;;
63394;SDS011;49531;-34.520;150.798;2022-08-16T03:56:40;0.40;;;0.40;;
63394;SDS011;49531;-34.520;150.798;2022-08-16T03:59:08;0.63;;;0.40;;
63394;SDS011;49531;-34.520;150.798;2022-08-16T04:01:35;1.10;;;0.50;;
63394;SDS011;49531;-34.520;150.798;2022-08-16T04:04:02;0.40;;;0.40;;
63394;SDS011;49531;-34.520;150.798;2022-08-16T04:06:29;0.43;;;0.38;;
63394;SDS011;49531;-34.520;150.798;2022-08-16T04:08:56;0.30;;;0.30;;
63394;SDS011;49531;-34.520;150.798;2022-08-16T04:11:23;0.50;;;0.50;;
63394;SDS011;49531;-34.520;150.798;2022-08-16T04:13:50;0.93;;;0.32;;
63394;SDS011;49531;-34.520;150.798;2022-08-16T04:16:17;0.47;;;0.47;;
63394;SDS011;49531;-34.520;150.798;2022-08-16T04:18:44;0.60;;;0.50;;
63394;SDS011;49531;-34.520;150.798;2022-08-16T04:21:11;0.90;;;0.50;;
63394;SDS011;49531;-34.520;150.798;2022-08-16T04:23:38;0.45;;;0.32;;
63394;SDS011;49531;-34.520;150.798;2022-08-16T04:26:06;1.27;;;0.50;;
63394;SDS011;49531;-34.520;150.798;2022-08-16T04:28:33;2.45;;;0.50;;
63394;SDS011;49531;-34.520;150.798;2022-08-16T04:31:00;0.40;;;0.40;;
63394;SDS011;49531;-34.520;150.798;2022-08-16T04:33:27;0.98;;;0.50;;
63394;SDS011;49531;-34.520;150.798;2022-08-16T04:35:54;0.68;;;0.40;;
63394;SDS011;49531;-34.520;150.798;2022-08-16T04:38:22;0.40;;;0.30;;
63394;SDS011;49531;-34.520;150.798;2022-08-16T04:40:50;1.38;;;0.47;;
63394;SDS011;49531;-34.520;150.798;2022-08-16T04:43:17;0.40;;;0.40;;
63394;SDS011;49531;-34.520;150.798;2022-08-16T04:45:44;0.70;;;0.40;;
63394;SDS011;49531;-34.520;150.798;2022-08-16T04:48:11;0.60;;;0.50;;
63394;SDS011;49531;-34.520;150.798;2022-08-16T04:50:39;0.52;;;0.40;;
63394;SDS011;49531;-34.520;150.798;2022-08-16T04:53:06;0.88;;;0.50;;
63394;SDS011;49531;-34.520;150.798;2022-08-16T04:55:34;0.82;;;0.43;;
63394;SDS011;49531;-34.520;150.798;2022-08-16T04:58:01;0.40;;;0.40;;
63394;SDS011;49531;-34.520;150.798;2022-08-16T05:00:30;0.25;;;0.22;;
63394;SDS011;49531;-34.520;150.798;2022-08-16T05:03:03;0.60;;;0.40;;
63394;SDS011;49531;-34.520;150.798;2022-08-16T05:05:32;0.30;;;0.30;;
63394;SDS011;49531;-34.520;150.798;2022-08-16T05:07:59;0.30;;;0.30;;
63394;SDS011;49531;-34.520;150.798;2022-08-16T05:10:27;0.45;;;0.30;;
63394;SDS011;49531;-34.520;150.798;2022-08-16T05:12:54;1.85;;;0.30;;
63394;SDS011;49531;-34.520;150.798;2022-08-16T05:15:24;1.05;;;0.30;;
63394;SDS011;49531;-34.520;150.798;2022-08-16T05:17:52;1.80;;;0.30;;
63394;SDS011;49531;-34.520;150.798;2022-08-16T05:20:21;0.85;;;0.40;;
63394;SDS011;49531;-34.520;150.798;2022-08-16T05:22:48;1.67;;;0.30;;
63394;SDS011;49531;-34.520;150.798;2022-08-16T05:25:16;0.40;;;0.40;;
63394;SDS011;49531;-34.520;150.798;2022-08-16T05:27:43;0.77;;;0.30;;
63394;SDS011;49531;-34.520;150.798;2022-08-16T05:30:10;1.55;;;0.45;;
63394;SDS011;49531;-34.520;150.798;2022-08-16T05:32:39;1.42;;;0.30;;
63394;SDS011;49531;-34.520;150.798;2022-08-16T05:35:07;2.08;;;0.40;;
63394;SDS011;49531;-34.520;150.798;2022-08-16T05:37:37;1.67;;;0.50;;
63394;SDS011;49531;-34.520;150.798;2022-08-16T05:40:05;0.55;;;0.40;;
63394;SDS011;49531;-34.520;150.798;2022-08-16T05:42:34;2.63;;;0.30;;
63394;SDS011;49531;-34.520;150.798;2022-08-16T05:45:02;1.33;;;0.30;;
63394;SDS011;49531;-34.520;150.798;2022-08-16T05:47:29;1.95;;;0.30;;
63394;SDS011;49531;-34.520;150.798;2022-08-16T05:49:56;1.15;;;0.30;;
63394;SDS011;49531;-34.520;150.798;2022-08-16T05:52:23;0.80;;;0.40;;
63394;SDS011;49531;-34.520;150.798;2022-08-16T05:54:50;1.75;;;0.20;;
63394;SDS011;49531;-34.520;150.798;2022-08-16T05:57:17;1.05;;;0.30;;
63394;SDS011;49531;-34.520;150.798;2022-08-16T05:59:45;0.35;;;0.30;;
63394;SDS011;49531;-34.520;150.798;2022-08-16T06:02:13;0.22;;;0.22;;
63394;SDS011;49531;-34.520;150.798;2022-08-16T06:04:40;0.50;;;0.50;;
63394;SDS011;49531;-34.520;150.798;2022-08-16T06:07:07;1.00;;;0.30;;
63394;SDS011;49531;-34.520;150.798;2022-08-16T06:09:35;0.30;;;0.30;;
63394;SDS011;49531;-34.520;150.798;2022-08-16T06:12:03;0.93;;;0.40;;
63394;SDS011;49531;-34.520;150.798;2022-08-16T06:14:31;0.85;;;0.40;;
63394;SDS011;49531;-34.520;150.798;2022-08-16T06:16:58;0.70;;;0.40;;
63394;SDS011;49531;-34.520;150.798;2022-08-16T06:19:25;1.58;;;0.40;;
63394;SDS011;49531;-34.520;150.798;2022-08-16T06:21:52;2.55;;;0.38;;
63394;SDS011;49531;-34.520;150.798;2022-08-16T06:24:19;1.25;;;0.35;;
63394;SDS011;49531;-34.520;150.798;2022-08-16T06:26:46;0.50;;;0.40;;
63394;SDS011;49531;-34.520;150.798;2022-08-16T06:29:13;1.38;;;0.50;;
63394;SDS011;49531;-34.520;150.798;2022-08-16T06:31:40;0.65;;;0.35;;
63394;SDS011;49531;-34.520;150.798;2022-08-16T06:34:07;0.45;;;0.30;;
63394;SDS011;49531;-34.520;150.798;2022-08-16T06:36:34;0.47;;;0.30;;
63394;SDS011;49531;-34.520;150.798;2022-08-16T06:39:01;0.90;;;0.30;;
63394;SDS011;49531;-34.520;150.798;2022-08-16T06:41:28;0.40;;;0.40;;
63394;SDS011;49531;-34.520;150.798;2022-08-16T06:43:55;0.57;;;0.35;;
63394;SDS011;49531;-34.520;150.798;2022-08-16T06:48:52;0.40;;;0.32;;
63394;SDS011;49531;-34.520;150.798;2022-08-16T06:51:20;0.70;;;0.30;;
63394;SDS011;49531;-34.520;150.798;2022-08-16T06:53:47;0.52;;;0.40;;
63394;SDS011;49531;-34.520;150.798;2022-08-16T06:56:14;0.30;;;0.30;;
63394;SDS011;49531;-34.520;150.798;2022-08-16T06:58:41;0.90;;;0.38;;
63394;SDS011;49531;-34.520;150.798;2022-08-16T07:01:08;0.70;;;0.40;;
63394;SDS011;49531;-34.520;150.798;2022-08-16T07:03:35;1.40;;;0.50;;
63394;SDS011;49531;-34.520;150.798;2022-08-16T07:06:03;1.23;;;0.52;;
63394;SDS011;49531;-34.520;150.798;2022-08-16T07:08:30;0.68;;;0.50;;
63394;SDS011;49531;-34.520;150.798;2022-08-16T07:10:57;0.95;;;0.50;;
63394;SDS011;49531;-34.520;150.798;2022-08-16T07:13:25;0.85;;;0.50;;
63394;SDS011;49531;-34.520;150.798;2022-08-16T07:15:52;3.58;;;0.60;;
63394;SDS011;49531;-34.520;150.798;2022-08-16T07:18:20;0.45;;;0.45;;
63394;SDS011;49531;-34.520;150.798;2022-08-16T07:20:48;0.95;;;0.43;;
63394;SDS011;49531;-34.520;150.798;2022-08-16T07:23:16;2.00;;;0.50;;
63394;SDS011;49531;-34.520;150.798;2022-08-16T07:25:43;1.27;;;0.60;;
63394;SDS011;49531;-34.520;150.798;2022-08-16T07:28:19;0.40;;;0.40;;
63394;SDS011;49531;-34.520;150.798;2022-08-16T07:30:46;0.40;;;0.40;;
63394;SDS011;49531;-34.520;150.798;2022-08-16T07:33:13;1.15;;;0.60;;
63394;SDS011;49531;-34.520;150.798;2022-08-16T07:35:42;1.27;;;0.50;;
63394;SDS011;49531;-34.520;150.798;2022-08-16T07:38:09;0.75;;;0.40;;
63394;SDS011;49531;-34.520;150.798;2022-08-16T07:40:37;0.68;;;0.47;;
63394;SDS011;49531;-34.520;150.798;2022-08-16T07:43:04;0.60;;;0.43;;
63394;SDS011;49531;-34.520;150.798;2022-08-16T07:45:31;0.50;;;0.50;;
63394;SDS011;49531;-34.520;150.798;2022-08-16T07:47:59;0.40;;;0.40;;
63394;SDS011;49531;-34.520;150.798;2022-08-16T07:50:26;0.50;;;0.50;;
63394;SDS011;49531;-34.520;150.798;2022-08-16T07:52:55;0.50;;;0.50;;
63394;SDS011;49531;-34.520;150.798;2022-08-16T07:55:23;0.90;;;0.50;;
63394;SDS011;49531;-34.520;150.798;2022-08-16T07:57:50;1.00;;;0.50;;
63394;SDS011;49531;-34.520;150.798;2022-08-16T08:00:17;0.80;;;0.50;;
63394;SDS011;49531;-34.520;150.798;2022-08-16T08:02:45;0.50;;;0.50;;
63394;SDS011;49531;-34.520;150.798;2022-08-16T08:05:13;0.50;;;0.50;;
63394;SDS011;49531;-34.520;150.798;2022-08-16T08:07:41;1.17;;;0.50;;
63394;SDS011;49531;-34.520;150.798;2022-08-16T08:10:08;0.45;;;0.40;;
63394;SDS011;49531;-34.520;150.798;2022-08-16T08:12:35;0.40;;;0.40;;
63394;SDS011;49531;-34.520;150.798;2022-08-16T08:15:04;1.38;;;0.40;;
63394;SDS011;49531;-34.520;150.798;2022-08-16T08:17:32;0.90;;;0.50;;
63394;SDS011;49531;-34.520;150.798;2022-08-16T08:20:03;0.70;;;0.50;;
63394;SDS011;49531;-34.520;150.798;2022-08-16T08:22:32;0.60;;;0.60;;
63394;SDS011;49531;-34.520;150.798;2022-08-16T08:24:59;0.70;;;0.60;;
63394;SDS011;49531;-34.520;150.798;2022-08-16T08:27:27;0.88;;;0.68;;
63394;SDS011;49531;-34.520;150.798;2022-08-16T08:29:55;1.15;;;0.70;;
63394;SDS011;49531;-34.520;150.798;2022-08-16T08:32:22;0.77;;;0.70;;
63394;SDS011;49531;-34.520;150.798;2022-08-16T08:34:51;0.82;;;0.73;;
63394;SDS011;49531;-34.520;150.798;2022-08-16T08:37:20;0.70;;;0.70;;
63394;SDS011;49531;-34.520;150.798;2022-08-16T08:39:47;0.88;;;0.80;;
63394;SDS011;49531;-34.520;150.798;2022-08-16T08:42:14;1.08;;;0.80;;
63394;SDS011;49531;-34.520;150.798;2022-08-16T08:44:41;1.00;;;0.90;;
63394;SDS011;49531;-34.520;150.798;2022-08-16T08:47:08;1.00;;;0.77;;
63394;SDS011;49531;-34.520;150.798;2022-08-16T08:49:35;0.70;;;0.70;;
63394;SDS011;49531;-34.520;150.798;2022-08-16T08:52:03;0.80;;;0.70;;
63394;SDS011;49531;-34.520;150.798;2022-08-16T08:54:31;0.52;;;0.52;;
63394;SDS011;49531;-34.520;150.798;2022-08-16T08:56:58;0.70;;;0.70;;
63394;SDS011;49531;-34.520;150.798;2022-08-16T08:59:25;0.70;;;0.70;;
63394;SDS011;49531;-34.520;150.798;2022-08-16T09:01:52;0.80;;;0.77;;
63394;SDS011;49531;-34.520;150.798;2022-08-16T09:04:20;1.00;;;0.90;;
63394;SDS011;49531;-34.520;150.798;2022-08-16T09:06:47;0.75;;;0.75;;
63394;SDS011;49531;-34.520;150.798;2022-08-16T09:09:14;1.38;;;0.80;;
63394;SDS011;49531;-34.520;150.798;2022-08-16T09:11:41;1.17;;;1.00;;
63394;SDS011;49531;-34.520;150.798;2022-08-16T09:14:09;1.48;;;1.10;;
63394;SDS011;49531;-34.520;150.798;2022-08-16T09:16:36;2.72;;;1.23;;
63394;SDS011;49531;-34.520;150.798;2022-08-16T09:19:03;2.75;;;1.20;;
63394;SDS011;49531;-34.520;150.798;2022-08-16T09:21:31;2.97;;;1.20;;
63394;SDS011;49531;-34.520;150.798;2022-08-16T09:23:58;2.10;;;1.20;;
63394;SDS011;49531;-34.520;150.798;2022-08-16T09:26:25;1.45;;;0.90;;
63394;SDS011;49531;-34.520;150.798;2022-08-16T09:28:52;1.25;;;0.82;;
63394;SDS011;49531;-34.520;150.798;2022-08-16T09:31:19;1.45;;;1.10;;
63394;SDS011;49531;-34.520;150.798;2022-08-16T09:33:46;2.85;;;1.15;;
63394;SDS011;49531;-34.520;150.798;2022-08-16T09:36:13;1.20;;;1.10;;
63394;SDS011;49531;-34.520;150.798;2022-08-16T09:38:40;2.38;;;1.20;;
63394;SDS011;49531;-34.520;150.798;2022-08-16T09:41:08;1.40;;;1.10;;
63394;SDS011;49531;-34.520;150.798;2022-08-16T09:43:36;1.50;;;1.20;;
63394;SDS011;49531;-34.520;150.798;2022-08-16T09:46:05;2.22;;;1.20;;
63394;SDS011;49531;-34.520;150.798;2022-08-16T09:48:33;2.67;;;1.13;;
63394;SDS011;49531;-34.520;150.798;2022-08-16T09:51:09;1.50;;;1.10;;
63394;SDS011;49531;-34.520;150.798;2022-08-16T09:53:38;2.97;;;1.10;;
63394;SDS011;49531;-34.520;150.798;2022-08-16T09:56:10;2.50;;;1.08;;
63394;SDS011;49531;-34.520;150.798;2022-08-16T09:58:49;1.67;;;1.02;;
63394;SDS011;49531;-34.520;150.798;2022-08-16T10:01:17;2.13;;;1.10;;
63394;SDS011;49531;-34.520;150.798;2022-08-16T10:03:44;1.70;;;1.08;;
63394;SDS011;49531;-34.520;150.798;2022-08-16T10:06:11;2.42;;;1.10;;
63394;SDS011;49531;-34.520;150.798;2022-08-16T10:08:38;1.65;;;1.00;;
63394;SDS011;49531;-34.520;150.798;2022-08-16T10:11:05;1.35;;;1.00;;
63394;SDS011;49531;-34.520;150.798;2022-08-16T10:14:10;1.85;;;0.90;;
63394;SDS011;49531;-34.520;150.798;2022-08-16T10:16:38;1.27;;;0.93;;
63394;SDS011;49531;-34.520;150.798;2022-08-16T10:19:05;1.10;;;0.95;;
63394;SDS011;49531;-34.520;150.798;2022-08-16T10:21:32;1.50;;;0.85;;
63394;SDS011;49531;-34.520;150.798;2022-08-16T10:23:59;0.82;;;0.77;;
63394;SDS011;49531;-34.520;150.798;2022-08-16T10:26:27;0.80;;;0.80;;
63394;SDS011;49531;-34.520;150.798;2022-08-16T10:28:55;1.02;;;0.90;;
63394;SDS011;49531;-34.520;150.798;2022-08-16T10:31:22;1.13;;;0.93;;
63394;SDS011;49531;-34.520;150.798;2022-08-16T10:33:49;1.02;;;0.90;;
63394;SDS011;49531;-34.520;150.798;2022-08-16T10:36:17;0.88;;;0.80;;
63394;SDS011;49531;-34.520;150.798;2022-08-16T10:38:44;2.75;;;0.90;;
63394;SDS011;49531;-34.520;150.798;2022-08-16T10:41:11;0.93;;;0.93;;
63394;SDS011;49531;-34.520;150.798;2022-08-16T10:43:39;1.05;;;0.95;;
63394;SDS011;49531;-34.520;150.798;2022-08-16T10:46:09;0.80;;;0.80;;
63394;SDS011;49531;-34.520;150.798;2022-08-16T10:48:38;1.00;;;0.90;;
63394;SDS011;49531;-34.520;150.798;2022-08-16T10:51:06;1.08;;;0.93;;
63394;SDS011;49531;-34.520;150.798;2022-08-16T10:53:34;1.20;;;1.08;;
63394;SDS011;49531;-34.520;150.798;2022-08-16T10:56:02;1.17;;;1.02;;
63394;SDS011;49531;-34.520;150.798;2022-08-16T10:58:32;1.02;;;0.90;;
63394;SDS011;49531;-34.520;150.798;2022-08-16T11:00:59;1.20;;;1.10;;
63394;SDS011;49531;-34.520;150.798;2022-08-16T11:03:29;1.13;;;1.00;;
63394;SDS011;49531;-34.520;150.798;2022-08-16T11:05:58;1.65;;;0.90;;
63394;SDS011;49531;-34.520;150.798;2022-08-16T11:08:25;1.70;;;1.00;;
63394;SDS011;49531;-34.520;150.798;2022-08-16T11:10:53;2.05;;;0.90;;
63394;SDS011;49531;-34.520;150.798;2022-08-16T11:13:21;1.00;;;0.90;;
63394;SDS011;49531;-34.520;150.798;2022-08-16T11:15:50;2.47;;;1.00;;
63394;SDS011;49531;-34.520;150.798;2022-08-16T11:18:19;1.45;;;1.00;;
63394;SDS011;49531;-34.520;150.798;2022-08-16T11:20:47;1.00;;;0.90;;
63394;SDS011;49531;-34.520;150.798;2022-08-16T11:23:14;1.25;;;0.90;;
63394;SDS011;49531;-34.520;150.798;2022-08-16T11:25:41;1.00;;;0.90;;
63394;SDS011;49531;-34.520;150.798;2022-08-16T11:28:09;0.70;;;0.70;;
63394;SDS011;49531;-34.520;150.798;2022-08-16T11:30:39;0.70;;;0.70;;
63394;SDS011;49531;-34.520;150.798;2022-08-16T11:33:07;0.80;;;0.80;;
63394;SDS011;49531;-34.520;150.798;2022-08-16T11:35:34;0.70;;;0.70;;
63394;SDS011;49531;-34.520;150.798;2022-08-16T11:38:23;1.02;;;0.70;;
63394;SDS011;49531;-34.520;150.798;2022-08-16T11:40:53;1.20;;;0.70;;
63394;SDS011;49531;-34.520;150.798;2022-08-16T11:43:27;0.88;;;0.60;;
63394;SDS011;49531;-34.520;150.798;2022-08-16T11:45:56;0.98;;;0.70;;
63394;SDS011;49531;-34.520;150.798;2022-08-16T11:48:26;0.77;;;0.77;;
63394;SDS011;49531;-34.520;150.798;2022-08-16T11:50:55;1.02;;;0.73;;
63394;SDS011;49531;-34.520;150.798;2022-08-16T11:53:22;1.85;;;0.60;;
63394;SDS011;49531;-34.520;150.798;2022-08-16T11:55:50;0.68;;;0.68;;
63394;SDS011;49531;-34.520;150.798;2022-08-16T11:58:21;0.60;;;0.60;;
63394;SDS011;49531;-34.520;150.798;2022-08-16T12:00:50;0.60;;;0.60;;
63394;SDS011;49531;-34.520;150.798;2022-08-16T12:03:23;1.20;;;0.70;;
63394;SDS011;49531;-34.520;150.798;2022-08-16T12:05:52;0.52;;;0.52;;
63394;SDS011;49531;-34.520;150.798;2022-08-16T12:08:21;0.73;;;0.60;;
63394;SDS011;49531;-34.520;150.798;2022-08-16T12:10:48;0.65;;;0.65;;
63394;SDS011;49531;-34.520;150.798;2022-08-16T12:13:16;0.60;;;0.60;;
63394;SDS011;49531;-34.520;150.798;2022-08-16T12:15:45;0.60;;;0.60;;
63394;SDS011;49531;-34.520;150.798;2022-08-16T12:18:12;0.75;;;0.68;;
63394;SDS011;49531;-34.520;150.798;2022-08-16T12:20:40;0.57;;;0.57;;
63394;SDS011;49531;-34.520;150.798;2022-08-16T12:23:08;0.63;;;0.63;;
63394;SDS011;49531;-34.520;150.798;2022-08-16T12:25:36;0.55;;;0.55;;
63394;SDS011;49531;-34.520;150.798;2022-08-16T12:28:04;1.30;;;0.60;;
63394;SDS011;49531;-34.520;150.798;2022-08-16T12:30:33;0.60;;;0.60;;
63394;SDS011;49531;-34.520;150.798;2022-08-16T12:33:03;0.50;;;0.50;;
63394;SDS011;49531;-34.520;150.798;2022-08-16T12:35:32;0.60;;;0.57;;
63394;SDS011;49531;-34.520;150.798;2022-08-16T12:38:01;1.10;;;0.60;;
63394;SDS011;49531;-34.520;150.798;2022-08-16T12:40:32;0.60;;;0.60;;
63394;SDS011;49531;-34.520;150.798;2022-08-16T12:43:03;0.60;;;0.60;;
63394;SDS011;49531;-34.520;150.798;2022-08-16T12:45:33;0.85;;;0.50;;
63394;SDS011;49531;-34.520;150.798;2022-08-16T12:48:08;0.50;;;0.50;;
63394;SDS011;49531;-34.520;150.798;2022-08-16T12:50:53;0.55;;;0.55;;
63394;SDS011;49531;-34.520;150.798;2022-08-16T12:53:20;0.50;;;0.50;;
63394;SDS011;49531;-34.520;150.798;2022-08-16T12:55:48;0.63;;;0.52;;
63394;SDS011;49531;-34.520;150.798;2022-08-16T12:58:19;0.60;;;0.60;;
63394;SDS011;49531;-34.520;150.798;2022-08-16T13:00:46;0.70;;;0.60;;
63394;SDS011;49531;-34.520;150.798;2022-08-16T13:03:13;0.40;;;0.40;;
63394;SDS011;49531;-34.520;150.798;2022-08-16T13:05:40;0.45;;;0.45;;
63394;SDS011;49531;-34.520;150.798;2022-08-16T13:08:09;0.50;;;0.50;;
63394;SDS011;49531;-34.520;150.798;2022-08-16T13:10:40;0.40;;;0.40;;
63394;SDS011;49531;-34.520;150.798;2022-08-16T13:13:13;0.50;;;0.50;;
63394;SDS011;49531;-34.520;150.798;2022-08-16T13:15:55;0.45;;;0.45;;
63394;SDS011;49531;-34.520;150.798;2022-08-16T13:18:24;0.50;;;0.50;;
63394;SDS011;49531;-34.520;150.798;2022-08-16T13:20:54;0.93;;;0.73;;
63394;SDS011;49531;-34.520;150.798;2022-08-16T13:23:22;0.60;;;0.60;;
63394;SDS011;49531;-34.520;150.798;2022-08-16T13:25:50;0.50;;;0.50;;
63394;SDS011;49531;-34.520;150.798;2022-08-16T13:28:17;0.52;;;0.50;;
63394;SDS011;49531;-34.520;150.798;2022-08-16T13:30:47;0.60;;;0.60;;
63394;SDS011;49531;-34.520;150.798;2022-08-16T13:33:19;0.50;;;0.50;;
63394;SDS011;49531;-34.520;150.798;2022-08-16T13:35:50;0.50;;;0.50;;
63394;SDS011;49531;-34.520;150.798;2022-08-16T13:38:18;0.52;;;0.50;;
63394;SDS011;49531;-34.520;150.798;2022-08-16T13:40:45;0.50;;;0.50;;
63394;SDS011;49531;-34.520;150.798;2022-08-16T13:43:13;0.70;;;0.60;;
63394;SDS011;49531;-34.520;150.798;2022-08-16T13:45:41;0.50;;;0.50;;
63394;SDS011;49531;-34.520;150.798;2022-08-16T13:48:08;0.50;;;0.50;;
63394;SDS011;49531;-34.520;150.798;2022-08-16T13:50:35;0.60;;;0.50;;
63394;SDS011;49531;-34.520;150.798;2022-08-16T13:53:02;0.70;;;0.50;;
63394;SDS011;49531;-34.520;150.798;2022-08-16T13:55:29;0.50;;;0.50;;
63394;SDS011;49531;-34.520;150.798;2022-08-16T13:57:57;0.40;;;0.40;;
63394;SDS011;49531;-34.520;150.798;2022-08-16T14:00:24;0.50;;;0.50;;
63394;SDS011;49531;-34.520;150.798;2022-08-16T14:02:51;0.68;;;0.50;;
63394;SDS011;49531;-34.520;150.798;2022-08-16T14:05:18;0.50;;;0.50;;
63394;SDS011;49531;-34.520;150.798;2022-08-16T14:07:45;0.63;;;0.50;;
63394;SDS011;49531;-34.520;150.798;2022-08-16T14:10:13;0.50;;;0.50;;
63394;SDS011;49531;-34.520;150.798;2022-08-16T14:12:40;0.70;;;0.52;;
63394;SDS011;49531;-34.520;150.798;2022-08-16T14:15:09;0.47;;;0.47;;
63394;SDS011;49531;-34.520;150.798;2022-08-16T14:17:39;0.68;;;0.60;;